sensor_id;sensor_type;location;lat;lon;timestamp;P1;durP1;ratioP1;P2;durP2;ratioP2
15595;SDS011;7898;48.658;9.068;2023-07-20T00:00:13;6.65;;;2.33;;
15595;SDS011;7898;48.658;9.068;2023-07-20T00:02:40;3.67;;;2.40;;
15595;SDS011;7898;48.658;9.068;2023-07-20T00:05:07;4.15;;;2.20;;
15595;SDS011;7898;48.658;9.068;2023-07-20T00:07:34;4.57;;;2.13;;
15595;SDS011;7898;48.658;9.068;2023-07-20T00:10:02;3.05;;;2.30;;
15595;SDS011;7898;48.658;9.068;2023-07-20T00:12:29;3.88;;;2.50;;
15595;SDS011;7898;48.658;9.068;2023-07-20T00:14:56;6.40;;;2.97;;
15595;SDS011;7898;48.658;9.068;2023-07-20T00:17:23;4.18;;;2.33;;
15595;SDS011;7898;48.658;9.068;2023-07-20T00:19:50;4.78;;;2.55;;
15595;SDS011;7898;48.658;9.068;2023-07-20T00:22:17;3.90;;;2.30;;
15595;SDS011;7898;48.658;9.068;2023-07-20T00:24:44;4.47;;;2.67;;
15595;SDS011;7898;48.658;9.068;2023-07-20T00:27:12;4.03;;;2.67;;
15595;SDS011;7898;48.658;9.068;2023-07-20T00:29:39;5.63;;;2.60;;
15595;SDS011;7898;48.658;9.068;2023-07-20T00:32:06;5.50;;;2.60;;
15595;SDS011;7898;48.658;9.068;2023-07-20T00:34:33;6.25;;;2.90;;
15595;SDS011;7898;48.658;9.068;2023-07-20T00:37:00;4.65;;;2.70;;
15595;SDS011;7898;48.658;9.068;2023-07-20T00:39:27;3.38;;;2.58;;
15595;SDS011;7898;48.658;9.068;2023-07-20T00:41:54;3.58;;;2.70;;
15595;SDS011;7898;48.658;9.068;2023-07-20T00:44:22;6.05;;;2.75;;
15595;SDS011;7898;48.658;9.068;2023-07-20T00:46:49;5.05;;;2.80;;
15595;SDS011;7898;48.658;9.068;2023-07-20T00:49:16;6.18;;;2.50;;
15595;SDS011;7898;48.658;9.068;2023-07-20T00:51:46;5.72;;;2.50;;
15595;SDS011;7898;48.658;9.068;2023-07-20T00:54:14;4.60;;;2.35;;
15595;SDS011;7898;48.658;9.068;2023-07-20T00:56:41;3.15;;;2.10;;
15595;SDS011;7898;48.658;9.068;2023-07-20T00:59:08;5.22;;;2.75;;
15595;SDS011;7898;48.658;9.068;2023-07-20T01:01:37;3.33;;;2.70;;
15595;SDS011;7898;48.658;9.068;2023-07-20T01:04:04;6.22;;;2.75;;
15595;SDS011;7898;48.658;9.068;2023-07-20T01:06:34;5.60;;;2.75;;
15595;SDS011;7898;48.658;9.068;2023-07-20T01:09:16;5.05;;;2.40;;
15595;SDS011;7898;48.658;9.068;2023-07-20T01:11:48;5.10;;;2.80;;
15595;SDS011;7898;48.658;9.068;2023-07-20T01:14:21;6.82;;;2.42;;
15595;SDS011;7898;48.658;9.068;2023-07-20T01:16:51;3.45;;;2.67;;
15595;SDS011;7898;48.658;9.068;2023-07-20T01:19:18;3.53;;;2.60;;
15595;SDS011;7898;48.658;9.068;2023-07-20T01:21:47;6.20;;;2.30;;
15595;SDS011;7898;48.658;9.068;2023-07-20T01:24:32;8.40;;;2.72;;
15595;SDS011;7898;48.658;9.068;2023-07-20T01:30:43;4.07;;;2.92;;
15595;SDS011;7898;48.658;9.068;2023-07-20T01:33:18;3.72;;;2.78;;
15595;SDS011;7898;48.658;9.068;2023-07-20T01:35:48;6.85;;;2.80;;
15595;SDS011;7898;48.658;9.068;2023-07-20T01:38:20;4.97;;;2.97;;
15595;SDS011;7898;48.658;9.068;2023-07-20T01:40:49;6.63;;;2.40;;
15595;SDS011;7898;48.658;9.068;2023-07-20T01:43:16;3.78;;;2.33;;
15595;SDS011;7898;48.658;9.068;2023-07-20T01:45:44;4.45;;;2.72;;
15595;SDS011;7898;48.658;9.068;2023-07-20T01:48:11;6.05;;;2.97;;
15595;SDS011;7898;48.658;9.068;2023-07-20T01:50:39;5.18;;;2.97;;
15595;SDS011;7898;48.658;9.068;2023-07-20T01:53:06;3.20;;;2.85;;
15595;SDS011;7898;48.658;9.068;2023-07-20T01:55:33;6.07;;;3.20;;
15595;SDS011;7898;48.658;9.068;2023-07-20T01:57:59;5.95;;;2.95;;
15595;SDS011;7898;48.658;9.068;2023-07-20T02:00:27;4.88;;;2.75;;
15595;SDS011;7898;48.658;9.068;2023-07-20T02:02:53;3.05;;;2.72;;
15595;SDS011;7898;48.658;9.068;2023-07-20T02:05:20;4.47;;;2.53;;
15595;SDS011;7898;48.658;9.068;2023-07-20T02:07:48;3.28;;;2.85;;
15595;SDS011;7898;48.658;9.068;2023-07-20T02:10:16;3.70;;;3.15;;
15595;SDS011;7898;48.658;9.068;2023-07-20T02:12:43;4.15;;;2.63;;
15595;SDS011;7898;48.658;9.068;2023-07-20T02:15:10;4.78;;;2.65;;
15595;SDS011;7898;48.658;9.068;2023-07-20T02:17:38;3.60;;;3.30;;
15595;SDS011;7898;48.658;9.068;2023-07-20T02:20:06;4.13;;;3.13;;
15595;SDS011;7898;48.658;9.068;2023-07-20T02:22:35;4.72;;;2.78;;
15595;SDS011;7898;48.658;9.068;2023-07-20T02:25:04;4.13;;;2.63;;
15595;SDS011;7898;48.658;9.068;2023-07-20T02:27:32;5.97;;;3.75;;
15595;SDS011;7898;48.658;9.068;2023-07-20T02:29:59;6.07;;;3.22;;
15595;SDS011;7898;48.658;9.068;2023-07-20T02:32:26;5.80;;;2.90;;
15595;SDS011;7898;48.658;9.068;2023-07-20T02:34:54;4.05;;;2.95;;
15595;SDS011;7898;48.658;9.068;2023-07-20T02:37:21;3.65;;;3.00;;
15595;SDS011;7898;48.658;9.068;2023-07-20T02:39:48;12.10;;;2.83;;
15595;SDS011;7898;48.658;9.068;2023-07-20T02:42:16;3.33;;;3.03;;
15595;SDS011;7898;48.658;9.068;2023-07-20T02:44:43;3.35;;;2.97;;
15595;SDS011;7898;48.658;9.068;2023-07-20T02:47:10;4.30;;;3.15;;
15595;SDS011;7898;48.658;9.068;2023-07-20T02:49:37;6.10;;;3.05;;
15595;SDS011;7898;48.658;9.068;2023-07-20T02:52:04;5.13;;;3.05;;
15595;SDS011;7898;48.658;9.068;2023-07-20T02:54:31;3.15;;;2.83;;
15595;SDS011;7898;48.658;9.068;2023-07-20T02:56:58;4.57;;;3.30;;
15595;SDS011;7898;48.658;9.068;2023-07-20T02:59:27;3.97;;;2.90;;
15595;SDS011;7898;48.658;9.068;2023-07-20T03:01:54;4.97;;;3.22;;
15595;SDS011;7898;48.658;9.068;2023-07-20T03:04:22;3.20;;;2.88;;
15595;SDS011;7898;48.658;9.068;2023-07-20T03:06:51;7.55;;;3.17;;
15595;SDS011;7898;48.658;9.068;2023-07-20T03:09:18;4.97;;;2.83;;
15595;SDS011;7898;48.658;9.068;2023-07-20T03:11:45;5.45;;;2.92;;
15595;SDS011;7898;48.658;9.068;2023-07-20T03:14:12;3.65;;;2.65;;
15595;SDS011;7898;48.658;9.068;2023-07-20T03:16:40;5.68;;;2.80;;
15595;SDS011;7898;48.658;9.068;2023-07-20T03:19:07;3.65;;;2.72;;
15595;SDS011;7898;48.658;9.068;2023-07-20T03:21:35;3.28;;;2.70;;
15595;SDS011;7898;48.658;9.068;2023-07-20T03:24:05;4.03;;;2.95;;
15595;SDS011;7898;48.658;9.068;2023-07-20T03:26:33;4.10;;;2.80;;
15595;SDS011;7898;48.658;9.068;2023-07-20T03:29:00;3.83;;;2.67;;
15595;SDS011;7898;48.658;9.068;2023-07-20T03:31:27;4.80;;;2.53;;
15595;SDS011;7898;48.658;9.068;2023-07-20T03:33:55;5.00;;;3.22;;
15595;SDS011;7898;48.658;9.068;2023-07-20T03:36:22;4.78;;;3.00;;
15595;SDS011;7898;48.658;9.068;2023-07-20T03:38:49;5.22;;;3.00;;
15595;SDS011;7898;48.658;9.068;2023-07-20T03:41:16;5.57;;;3.17;;
15595;SDS011;7898;48.658;9.068;2023-07-20T03:43:44;3.70;;;2.63;;
15595;SDS011;7898;48.658;9.068;2023-07-20T03:46:12;3.47;;;2.85;;
15595;SDS011;7898;48.658;9.068;2023-07-20T03:48:39;4.93;;;3.15;;
15595;SDS011;7898;48.658;9.068;2023-07-20T03:51:07;4.80;;;2.80;;
15595;SDS011;7898;48.658;9.068;2023-07-20T03:53:34;4.85;;;2.65;;
15595;SDS011;7898;48.658;9.068;2023-07-20T03:56:01;3.90;;;3.10;;
15595;SDS011;7898;48.658;9.068;2023-07-20T03:58:28;4.45;;;3.30;;
15595;SDS011;7898;48.658;9.068;2023-07-20T04:00:55;7.20;;;3.20;;
15595;SDS011;7898;48.658;9.068;2023-07-20T04:03:23;4.95;;;2.78;;
15595;SDS011;7898;48.658;9.068;2023-07-20T04:05:52;6.05;;;3.03;;
15595;SDS011;7898;48.658;9.068;2023-07-20T04:08:21;5.10;;;2.70;;
15595;SDS011;7898;48.658;9.068;2023-07-20T04:10:49;4.38;;;2.60;;
15595;SDS011;7898;48.658;9.068;2023-07-20T04:13:16;8.68;;;3.20;;
15595;SDS011;7898;48.658;9.068;2023-07-20T04:15:43;5.95;;;2.67;;
15595;SDS011;7898;48.658;9.068;2023-07-20T04:18:10;3.00;;;2.63;;
15595;SDS011;7898;48.658;9.068;2023-07-20T04:20:37;7.20;;;3.10;;
15595;SDS011;7898;48.658;9.068;2023-07-20T04:23:04;4.72;;;2.97;;
15595;SDS011;7898;48.658;9.068;2023-07-20T04:25:32;3.20;;;2.88;;
15595;SDS011;7898;48.658;9.068;2023-07-20T04:28:04;4.57;;;3.13;;
15595;SDS011;7898;48.658;9.068;2023-07-20T04:30:34;4.93;;;3.10;;
15595;SDS011;7898;48.658;9.068;2023-07-20T04:33:01;3.90;;;3.22;;
15595;SDS011;7898;48.658;9.068;2023-07-20T04:35:44;5.57;;;3.10;;
15595;SDS011;7898;48.658;9.068;2023-07-20T04:38:12;5.15;;;3.42;;
15595;SDS011;7898;48.658;9.068;2023-07-20T04:40:42;4.55;;;3.00;;
15595;SDS011;7898;48.658;9.068;2023-07-20T04:43:10;4.05;;;2.67;;
15595;SDS011;7898;48.658;9.068;2023-07-20T04:45:37;4.20;;;3.20;;
15595;SDS011;7898;48.658;9.068;2023-07-20T04:48:06;6.57;;;3.50;;
15595;SDS011;7898;48.658;9.068;2023-07-20T04:50:35;4.05;;;3.10;;
15595;SDS011;7898;48.658;9.068;2023-07-20T04:53:02;6.95;;;2.85;;
15595;SDS011;7898;48.658;9.068;2023-07-20T04:55:30;4.45;;;2.92;;
15595;SDS011;7898;48.658;9.068;2023-07-20T04:58:00;3.50;;;2.67;;
15595;SDS011;7898;48.658;9.068;2023-07-20T05:00:27;4.70;;;2.85;;
15595;SDS011;7898;48.658;9.068;2023-07-20T05:02:54;4.20;;;3.00;;
15595;SDS011;7898;48.658;9.068;2023-07-20T05:05:24;5.30;;;2.83;;
15595;SDS011;7898;48.658;9.068;2023-07-20T05:07:51;4.53;;;2.58;;
15595;SDS011;7898;48.658;9.068;2023-07-20T05:10:18;4.28;;;2.83;;
15595;SDS011;7898;48.658;9.068;2023-07-20T05:12:44;5.35;;;3.28;;
15595;SDS011;7898;48.658;9.068;2023-07-20T05:15:13;4.55;;;2.95;;
15595;SDS011;7898;48.658;9.068;2023-07-20T05:17:40;4.13;;;2.55;;
15595;SDS011;7898;48.658;9.068;2023-07-20T05:20:07;6.05;;;3.20;;
15595;SDS011;7898;48.658;9.068;2023-07-20T05:22:37;4.78;;;3.65;;
15595;SDS011;7898;48.658;9.068;2023-07-20T05:25:05;5.03;;;4.03;;
15595;SDS011;7898;48.658;9.068;2023-07-20T05:27:33;4.40;;;3.00;;
15595;SDS011;7898;48.658;9.068;2023-07-20T05:30:01;5.20;;;3.13;;
15595;SDS011;7898;48.658;9.068;2023-07-20T05:32:29;6.30;;;3.20;;
15595;SDS011;7898;48.658;9.068;2023-07-20T05:34:57;4.40;;;3.28;;
15595;SDS011;7898;48.658;9.068;2023-07-20T05:37:23;4.97;;;2.92;;
15595;SDS011;7898;48.658;9.068;2023-07-20T05:39:50;3.92;;;3.25;;
15595;SDS011;7898;48.658;9.068;2023-07-20T05:42:17;4.45;;;3.03;;
15595;SDS011;7898;48.658;9.068;2023-07-20T05:44:44;7.20;;;3.35;;
15595;SDS011;7898;48.658;9.068;2023-07-20T05:47:12;4.28;;;3.00;;
15595;SDS011;7898;48.658;9.068;2023-07-20T05:49:40;5.95;;;3.58;;
15595;SDS011;7898;48.658;9.068;2023-07-20T05:52:07;5.95;;;3.33;;
15595;SDS011;7898;48.658;9.068;2023-07-20T05:54:34;9.05;;;3.25;;
15595;SDS011;7898;48.658;9.068;2023-07-20T05:57:01;7.45;;;3.67;;
15595;SDS011;7898;48.658;9.068;2023-07-20T05:59:28;6.85;;;3.35;;
15595;SDS011;7898;48.658;9.068;2023-07-20T06:01:55;5.25;;;3.00;;
15595;SDS011;7898;48.658;9.068;2023-07-20T06:04:22;6.15;;;3.15;;
15595;SDS011;7898;48.658;9.068;2023-07-20T06:06:51;7.25;;;3.20;;
15595;SDS011;7898;48.658;9.068;2023-07-20T06:09:17;4.65;;;3.08;;
15595;SDS011;7898;48.658;9.068;2023-07-20T06:11:44;9.07;;;3.22;;
15595;SDS011;7898;48.658;9.068;2023-07-20T06:14:11;7.38;;;3.00;;
15595;SDS011;7898;48.658;9.068;2023-07-20T06:16:38;4.68;;;3.05;;
15595;SDS011;7898;48.658;9.068;2023-07-20T06:19:05;6.55;;;3.00;;
15595;SDS011;7898;48.658;9.068;2023-07-20T06:21:32;3.20;;;2.90;;
15595;SDS011;7898;48.658;9.068;2023-07-20T06:24:01;7.03;;;3.03;;
15595;SDS011;7898;48.658;9.068;2023-07-20T06:26:28;5.93;;;2.83;;
15595;SDS011;7898;48.658;9.068;2023-07-20T06:28:55;9.32;;;2.70;;
15595;SDS011;7898;48.658;9.068;2023-07-20T06:31:22;7.63;;;2.67;;
15595;SDS011;7898;48.658;9.068;2023-07-20T06:33:49;6.57;;;2.60;;
15595;SDS011;7898;48.658;9.068;2023-07-20T06:36:17;6.55;;;2.50;;
15595;SDS011;7898;48.658;9.068;2023-07-20T06:38:44;4.45;;;2.83;;
15595;SDS011;7898;48.658;9.068;2023-07-20T06:41:12;5.50;;;2.63;;
15595;SDS011;7898;48.658;9.068;2023-07-20T06:43:39;7.85;;;3.30;;
15595;SDS011;7898;48.658;9.068;2023-07-20T06:46:06;3.97;;;2.20;;
15595;SDS011;7898;48.658;9.068;2023-07-20T06:48:33;6.32;;;2.55;;
15595;SDS011;7898;48.658;9.068;2023-07-20T06:51:00;4.43;;;2.42;;
15595;SDS011;7898;48.658;9.068;2023-07-20T06:53:27;6.70;;;2.50;;
15595;SDS011;7898;48.658;9.068;2023-07-20T06:55:54;6.60;;;2.63;;
15595;SDS011;7898;48.658;9.068;2023-07-20T06:58:23;3.80;;;2.85;;
15595;SDS011;7898;48.658;9.068;2023-07-20T07:00:50;3.80;;;2.30;;
15595;SDS011;7898;48.658;9.068;2023-07-20T07:03:17;4.57;;;2.55;;
15595;SDS011;7898;48.658;9.068;2023-07-20T07:05:44;4.53;;;2.45;;
15595;SDS011;7898;48.658;9.068;2023-07-20T07:08:11;5.45;;;2.83;;
15595;SDS011;7898;48.658;9.068;2023-07-20T07:10:38;7.35;;;2.78;;
15595;SDS011;7898;48.658;9.068;2023-07-20T07:13:05;5.72;;;2.75;;
15595;SDS011;7898;48.658;9.068;2023-07-20T07:15:33;3.78;;;2.35;;
15595;SDS011;7898;48.658;9.068;2023-07-20T07:18:00;6.63;;;3.10;;
15595;SDS011;7898;48.658;9.068;2023-07-20T07:20:28;5.65;;;2.63;;
15595;SDS011;7898;48.658;9.068;2023-07-20T07:22:55;4.82;;;2.60;;
15595;SDS011;7898;48.658;9.068;2023-07-20T07:25:22;7.95;;;3.20;;
15595;SDS011;7898;48.658;9.068;2023-07-20T07:27:49;3.83;;;2.35;;
15595;SDS011;7898;48.658;9.068;2023-07-20T07:30:16;3.42;;;2.33;;
15595;SDS011;7898;48.658;9.068;2023-07-20T07:32:45;3.22;;;2.60;;
15595;SDS011;7898;48.658;9.068;2023-07-20T07:35:11;3.72;;;2.38;;
15595;SDS011;7898;48.658;9.068;2023-07-20T07:37:38;3.10;;;2.35;;
15595;SDS011;7898;48.658;9.068;2023-07-20T07:40:06;2.50;;;2.10;;
15595;SDS011;7898;48.658;9.068;2023-07-20T07:42:33;7.13;;;3.25;;
15595;SDS011;7898;48.658;9.068;2023-07-20T07:45:01;6.20;;;3.03;;
15595;SDS011;7898;48.658;9.068;2023-07-20T07:47:28;3.15;;;2.85;;
15595;SDS011;7898;48.658;9.068;2023-07-20T07:49:56;3.58;;;2.40;;
15595;SDS011;7898;48.658;9.068;2023-07-20T07:52:23;4.95;;;2.65;;
15595;SDS011;7898;48.658;9.068;2023-07-20T07:54:50;2.80;;;2.47;;
15595;SDS011;7898;48.658;9.068;2023-07-20T07:57:17;3.38;;;2.47;;
15595;SDS011;7898;48.658;9.068;2023-07-20T07:59:44;3.05;;;2.75;;
15595;SDS011;7898;48.658;9.068;2023-07-20T08:02:11;2.63;;;2.30;;
15595;SDS011;7898;48.658;9.068;2023-07-20T08:04:38;5.05;;;2.78;;
15595;SDS011;7898;48.658;9.068;2023-07-20T08:07:06;4.38;;;2.90;;
15595;SDS011;7898;48.658;9.068;2023-07-20T08:09:33;5.85;;;2.90;;
15595;SDS011;7898;48.658;9.068;2023-07-20T08:12:00;3.15;;;2.67;;
15595;SDS011;7898;48.658;9.068;2023-07-20T08:14:27;7.32;;;2.83;;
15595;SDS011;7898;48.658;9.068;2023-07-20T08:16:54;3.85;;;2.70;;
15595;SDS011;7898;48.658;9.068;2023-07-20T08:19:21;3.05;;;2.55;;
15595;SDS011;7898;48.658;9.068;2023-07-20T08:21:48;6.07;;;2.70;;
15595;SDS011;7898;48.658;9.068;2023-07-20T08:24:17;5.72;;;3.08;;
15595;SDS011;7898;48.658;9.068;2023-07-20T08:26:43;3.45;;;2.50;;
15595;SDS011;7898;48.658;9.068;2023-07-20T08:29:10;3.60;;;2.60;;
15595;SDS011;7898;48.658;9.068;2023-07-20T08:31:37;3.83;;;2.40;;
15595;SDS011;7898;48.658;9.068;2023-07-20T08:34:05;5.15;;;2.40;;
15595;SDS011;7898;48.658;9.068;2023-07-20T08:36:32;3.28;;;2.63;;
15595;SDS011;7898;48.658;9.068;2023-07-20T08:38:59;5.93;;;2.70;;
15595;SDS011;7898;48.658;9.068;2023-07-20T08:41:29;3.63;;;2.40;;
15595;SDS011;7898;48.658;9.068;2023-07-20T08:43:56;2.90;;;2.38;;
15595;SDS011;7898;48.658;9.068;2023-07-20T08:46:24;3.97;;;2.40;;
15595;SDS011;7898;48.658;9.068;2023-07-20T08:48:53;7.20;;;2.25;;
15595;SDS011;7898;48.658;9.068;2023-07-20T08:51:22;3.08;;;2.78;;
15595;SDS011;7898;48.658;9.068;2023-07-20T08:53:51;5.20;;;2.88;;
15595;SDS011;7898;48.658;9.068;2023-07-20T08:56:18;3.03;;;2.15;;
15595;SDS011;7898;48.658;9.068;2023-07-20T08:58:48;3.67;;;2.75;;
15595;SDS011;7898;48.658;9.068;2023-07-20T09:01:15;6.30;;;2.30;;
15595;SDS011;7898;48.658;9.068;2023-07-20T09:03:44;5.00;;;2.45;;
15595;SDS011;7898;48.658;9.068;2023-07-20T09:06:11;5.15;;;2.40;;
15595;SDS011;7898;48.658;9.068;2023-07-20T09:08:39;5.15;;;2.95;;
15595;SDS011;7898;48.658;9.068;2023-07-20T09:11:05;2.42;;;2.08;;
15595;SDS011;7898;48.658;9.068;2023-07-20T09:13:32;3.47;;;2.22;;
15595;SDS011;7898;48.658;9.068;2023-07-20T09:16:01;5.70;;;2.47;;
15595;SDS011;7898;48.658;9.068;2023-07-20T09:18:30;5.63;;;2.30;;
15595;SDS011;7898;48.658;9.068;2023-07-20T09:21:00;6.90;;;2.17;;
15595;SDS011;7898;48.658;9.068;2023-07-20T09:23:31;4.25;;;2.20;;
15595;SDS011;7898;48.658;9.068;2023-07-20T09:25:59;3.53;;;1.98;;
15595;SDS011;7898;48.658;9.068;2023-07-20T09:28:26;2.20;;;2.00;;
15595;SDS011;7898;48.658;9.068;2023-07-20T09:30:54;3.50;;;1.95;;
15595;SDS011;7898;48.658;9.068;2023-07-20T09:33:24;2.15;;;1.80;;
15595;SDS011;7898;48.658;9.068;2023-07-20T09:35:51;5.07;;;2.20;;
15595;SDS011;7898;48.658;9.068;2023-07-20T09:38:17;2.55;;;2.00;;
15595;SDS011;7898;48.658;9.068;2023-07-20T09:40:44;3.85;;;2.20;;
15595;SDS011;7898;48.658;9.068;2023-07-20T09:43:10;2.38;;;1.92;;
15595;SDS011;7898;48.658;9.068;2023-07-20T09:45:41;5.82;;;1.92;;
15595;SDS011;7898;48.658;9.068;2023-07-20T09:48:09;2.58;;;1.80;;
15595;SDS011;7898;48.658;9.068;2023-07-20T09:50:41;7.15;;;2.40;;
15595;SDS011;7898;48.658;9.068;2023-07-20T09:53:11;3.40;;;1.92;;
15595;SDS011;7898;48.658;9.068;2023-07-20T09:55:39;3.45;;;2.00;;
15595;SDS011;7898;48.658;9.068;2023-07-20T09:58:08;3.05;;;1.95;;
15595;SDS011;7898;48.658;9.068;2023-07-20T10:00:35;3.65;;;2.10;;
15595;SDS011;7898;48.658;9.068;2023-07-20T10:03:03;5.38;;;1.98;;
15595;SDS011;7898;48.658;9.068;2023-07-20T10:05:32;2.33;;;1.92;;
15595;SDS011;7898;48.658;9.068;2023-07-20T10:08:01;1.88;;;1.67;;
15595;SDS011;7898;48.658;9.068;2023-07-20T10:10:29;2.30;;;1.77;;
15595;SDS011;7898;48.658;9.068;2023-07-20T10:12:58;2.15;;;1.45;;
15595;SDS011;7898;48.658;9.068;2023-07-20T10:15:28;3.35;;;1.90;;
15595;SDS011;7898;48.658;9.068;2023-07-20T10:18:02;3.25;;;1.60;;
15595;SDS011;7898;48.658;9.068;2023-07-20T10:20:33;3.20;;;1.63;;
15595;SDS011;7898;48.658;9.068;2023-07-20T10:23:06;3.40;;;2.03;;
15595;SDS011;7898;48.658;9.068;2023-07-20T10:25:34;5.18;;;2.35;;
15595;SDS011;7898;48.658;9.068;2023-07-20T10:28:03;2.45;;;1.90;;
15595;SDS011;7898;48.658;9.068;2023-07-20T10:30:31;3.40;;;1.95;;
15595;SDS011;7898;48.658;9.068;2023-07-20T10:32:59;2.65;;;1.90;;
15595;SDS011;7898;48.658;9.068;2023-07-20T10:35:28;2.30;;;1.67;;
15595;SDS011;7898;48.658;9.068;2023-07-20T10:37:55;2.60;;;1.63;;
15595;SDS011;7898;48.658;9.068;2023-07-20T10:40:29;3.42;;;1.50;;
15595;SDS011;7898;48.658;9.068;2023-07-20T10:42:56;3.20;;;1.92;;
15595;SDS011;7898;48.658;9.068;2023-07-20T10:45:41;2.78;;;1.90;;
15595;SDS011;7898;48.658;9.068;2023-07-20T10:48:15;4.07;;;1.60;;
15595;SDS011;7898;48.658;9.068;2023-07-20T10:50:44;1.88;;;1.67;;
15595;SDS011;7898;48.658;9.068;2023-07-20T10:53:13;2.40;;;1.58;;
15595;SDS011;7898;48.658;9.068;2023-07-20T10:55:42;4.30;;;1.77;;
15595;SDS011;7898;48.658;9.068;2023-07-20T10:58:11;2.47;;;1.33;;
15595;SDS011;7898;48.658;9.068;2023-07-20T11:03:27;3.38;;;1.88;;
15595;SDS011;7898;48.658;9.068;2023-07-20T11:05:58;1.73;;;1.35;;
15595;SDS011;7898;48.658;9.068;2023-07-20T11:08:37;3.20;;;1.80;;
15595;SDS011;7898;48.658;9.068;2023-07-20T11:11:23;1.98;;;1.60;;
15595;SDS011;7898;48.658;9.068;2023-07-20T11:13:54;3.80;;;2.08;;
15595;SDS011;7898;48.658;9.068;2023-07-20T11:19:05;1.50;;;1.40;;
15595;SDS011;7898;48.658;9.068;2023-07-20T11:21:40;2.40;;;1.60;;
15595;SDS011;7898;48.658;9.068;2023-07-20T11:24:08;2.08;;;1.40;;
15595;SDS011;7898;48.658;9.068;2023-07-20T11:26:43;2.83;;;1.50;;
15595;SDS011;7898;48.658;9.068;2023-07-20T11:29:11;3.25;;;1.45;;
15595;SDS011;7898;48.658;9.068;2023-07-20T11:31:38;3.25;;;1.77;;
15595;SDS011;7898;48.658;9.068;2023-07-20T11:34:10;2.60;;;1.48;;
15595;SDS011;7898;48.658;9.068;2023-07-20T11:36:39;3.72;;;1.70;;
15595;SDS011;7898;48.658;9.068;2023-07-20T11:39:08;2.38;;;1.73;;
15595;SDS011;7898;48.658;9.068;2023-07-20T11:41:35;2.80;;;1.58;;
15595;SDS011;7898;48.658;9.068;2023-07-20T11:44:04;2.67;;;1.60;;
15595;SDS011;7898;48.658;9.068;2023-07-20T11:46:32;2.22;;;1.23;;
15595;SDS011;7898;48.658;9.068;2023-07-20T11:49:00;2.95;;;1.77;;
15595;SDS011;7898;48.658;9.068;2023-07-20T11:51:27;3.10;;;1.60;;
15595;SDS011;7898;48.658;9.068;2023-07-20T11:53:55;3.03;;;1.70;;
15595;SDS011;7898;48.658;9.068;2023-07-20T11:56:23;2.22;;;1.50;;
15595;SDS011;7898;48.658;9.068;2023-07-20T11:58:54;3.58;;;1.63;;
15595;SDS011;7898;48.658;9.068;2023-07-20T12:01:23;1.27;;;1.17;;
15595;SDS011;7898;48.658;9.068;2023-07-20T12:03:51;3.05;;;1.85;;
15595;SDS011;7898;48.658;9.068;2023-07-20T12:06:18;3.10;;;1.73;;
15595;SDS011;7898;48.658;9.068;2023-07-20T12:08:48;6.05;;;1.70;;
15595;SDS011;7898;48.658;9.068;2023-07-20T12:11:29;3.33;;;1.67;;
15595;SDS011;7898;48.658;9.068;2023-07-20T12:13:57;2.92;;;1.85;;
15595;SDS011;7898;48.658;9.068;2023-07-20T12:16:27;2.70;;;1.38;;
15595;SDS011;7898;48.658;9.068;2023-07-20T12:19:01;2.22;;;1.33;;
15595;SDS011;7898;48.658;9.068;2023-07-20T12:21:29;2.25;;;1.50;;
15595;SDS011;7898;48.658;9.068;2023-07-20T12:23:56;2.55;;;1.83;;
15595;SDS011;7898;48.658;9.068;2023-07-20T12:26:24;3.90;;;1.80;;
15595;SDS011;7898;48.658;9.068;2023-07-20T12:28:52;3.35;;;1.60;;
15595;SDS011;7898;48.658;9.068;2023-07-20T12:31:19;3.15;;;1.98;;
15595;SDS011;7898;48.658;9.068;2023-07-20T12:33:49;1.80;;;1.52;;
15595;SDS011;7898;48.658;9.068;2023-07-20T12:36:16;1.98;;;1.42;;
15595;SDS011;7898;48.658;9.068;2023-07-20T12:38:44;2.70;;;1.42;;
15595;SDS011;7898;48.658;9.068;2023-07-20T12:41:12;1.58;;;1.42;;
15595;SDS011;7898;48.658;9.068;2023-07-20T12:43:39;3.15;;;1.48;;
15595;SDS011;7898;48.658;9.068;2023-07-20T12:46:06;2.65;;;1.73;;
15595;SDS011;7898;48.658;9.068;2023-07-20T12:48:34;3.65;;;1.48;;
15595;SDS011;7898;48.658;9.068;2023-07-20T12:51:04;2.38;;;1.38;;
15595;SDS011;7898;48.658;9.068;2023-07-20T12:53:31;4.53;;;1.75;;
15595;SDS011;7898;48.658;9.068;2023-07-20T12:55:58;1.48;;;1.35;;
15595;SDS011;7898;48.658;9.068;2023-07-20T12:58:25;1.60;;;1.50;;
15595;SDS011;7898;48.658;9.068;2023-07-20T13:00:53;3.30;;;1.70;;
15595;SDS011;7898;48.658;9.068;2023-07-20T13:03:20;4.10;;;1.48;;
15595;SDS011;7898;48.658;9.068;2023-07-20T13:05:47;2.00;;;1.50;;
15595;SDS011;7898;48.658;9.068;2023-07-20T13:08:15;1.63;;;1.50;;
15595;SDS011;7898;48.658;9.068;2023-07-20T13:10:43;3.28;;;1.70;;
15595;SDS011;7898;48.658;9.068;2023-07-20T13:13:10;1.77;;;1.42;;
15595;SDS011;7898;48.658;9.068;2023-07-20T13:15:41;2.60;;;1.60;;
15595;SDS011;7898;48.658;9.068;2023-07-20T13:18:09;1.60;;;1.50;;
15595;SDS011;7898;48.658;9.068;2023-07-20T13:20:36;1.73;;;1.45;;
15595;SDS011;7898;48.658;9.068;2023-07-20T13:23:03;1.88;;;1.65;;
15595;SDS011;7898;48.658;9.068;2023-07-20T13:25:32;2.40;;;1.60;;
15595;SDS011;7898;48.658;9.068;2023-07-20T13:27:59;4.88;;;1.90;;
15595;SDS011;7898;48.658;9.068;2023-07-20T13:30:26;2.38;;;1.85;;
15595;SDS011;7898;48.658;9.068;2023-07-20T13:32:53;2.00;;;1.52;;
15595;SDS011;7898;48.658;9.068;2023-07-20T13:35:19;1.70;;;1.60;;
15595;SDS011;7898;48.658;9.068;2023-07-20T13:37:46;1.88;;;1.58;;
15595;SDS011;7898;48.658;9.068;2023-07-20T13:40:14;2.50;;;1.55;;
15595;SDS011;7898;48.658;9.068;2023-07-20T13:42:45;2.15;;;1.70;;
15595;SDS011;7898;48.658;9.068;2023-07-20T13:45:11;1.55;;;1.25;;
15595;SDS011;7898;48.658;9.068;2023-07-20T13:47:38;2.15;;;1.52;;
15595;SDS011;7898;48.658;9.068;2023-07-20T13:50:06;3.78;;;1.67;;
15595;SDS011;7898;48.658;9.068;2023-07-20T13:52:33;2.10;;;1.52;;
15595;SDS011;7898;48.658;9.068;2023-07-20T13:55:00;3.65;;;1.83;;
15595;SDS011;7898;48.658;9.068;2023-07-20T13:57:27;2.28;;;1.42;;
15595;SDS011;7898;48.658;9.068;2023-07-20T13:59:55;2.20;;;1.52;;
15595;SDS011;7898;48.658;9.068;2023-07-20T14:02:22;4.05;;;1.70;;
15595;SDS011;7898;48.658;9.068;2023-07-20T14:04:49;2.22;;;1.55;;
15595;SDS011;7898;48.658;9.068;2023-07-20T14:07:16;2.10;;;1.80;;
15595;SDS011;7898;48.658;9.068;2023-07-20T14:09:43;2.65;;;1.77;;
15595;SDS011;7898;48.658;9.068;2023-07-20T14:12:10;3.25;;;1.70;;
15595;SDS011;7898;48.658;9.068;2023-07-20T14:14:39;2.03;;;1.63;;
15595;SDS011;7898;48.658;9.068;2023-07-20T14:17:07;3.47;;;1.55;;
15595;SDS011;7898;48.658;9.068;2023-07-20T14:19:36;2.85;;;1.25;;
15595;SDS011;7898;48.658;9.068;2023-07-20T14:22:04;3.38;;;1.67;;
15595;SDS011;7898;48.658;9.068;2023-07-20T14:24:31;4.47;;;1.58;;
15595;SDS011;7898;48.658;9.068;2023-07-20T14:26:58;1.52;;;1.40;;
15595;SDS011;7898;48.658;9.068;2023-07-20T14:29:41;5.18;;;1.67;;
15595;SDS011;7898;48.658;9.068;2023-07-20T14:32:09;2.42;;;1.52;;
15595;SDS011;7898;48.658;9.068;2023-07-20T14:34:36;3.63;;;1.80;;
15595;SDS011;7898;48.658;9.068;2023-07-20T14:37:04;2.42;;;1.70;;
15595;SDS011;7898;48.658;9.068;2023-07-20T14:39:32;1.88;;;1.50;;
15595;SDS011;7898;48.658;9.068;2023-07-20T14:41:59;5.43;;;1.80;;
15595;SDS011;7898;48.658;9.068;2023-07-20T14:44:26;3.47;;;1.60;;
15595;SDS011;7898;48.658;9.068;2023-07-20T14:46:53;2.45;;;1.30;;
15595;SDS011;7898;48.658;9.068;2023-07-20T14:49:22;1.50;;;1.30;;
15595;SDS011;7898;48.658;9.068;2023-07-20T14:51:49;3.20;;;1.75;;
15595;SDS011;7898;48.658;9.068;2023-07-20T14:54:15;1.75;;;1.65;;
15595;SDS011;7898;48.658;9.068;2023-07-20T14:56:48;2.88;;;1.52;;
15595;SDS011;7898;48.658;9.068;2023-07-20T14:59:15;1.45;;;1.35;;
15595;SDS011;7898;48.658;9.068;2023-07-20T15:01:43;2.13;;;1.70;;
15595;SDS011;7898;48.658;9.068;2023-07-20T15:04:11;3.92;;;1.80;;
15595;SDS011;7898;48.658;9.068;2023-07-20T15:06:39;2.92;;;1.52;;
15595;SDS011;7898;48.658;9.068;2023-07-20T15:09:06;1.55;;;1.40;;
15595;SDS011;7898;48.658;9.068;2023-07-20T15:11:34;4.30;;;1.50;;
15595;SDS011;7898;48.658;9.068;2023-07-20T15:14:02;2.05;;;1.60;;